createdAt,value
2023-03-10T00:01:30.699Z,97.28
2023-03-10T00:06:35.621Z,97.31
2023-03-10T00:11:38.286Z,97.67
2023-03-10T00:16:41.452Z,96.58
2023-03-10T00:21:45.718Z,97.06
2023-03-10T00:26:50.075Z,96.27
2023-03-10T00:31:52.601Z,96.18
2023-03-10T00:36:55.146Z,96.77
2023-03-10T00:41:58.909Z,96.74
2023-03-10T00:47:01.463Z,96.16
2023-03-10T00:52:04.552Z,96.38
2023-03-10T00:57:07.707Z,96.52
2023-03-10T01:02:10.448Z,96.04
2023-03-10T01:07:12.996Z,95.84
2023-03-10T01:12:15.598Z,95.77
2023-03-10T01:17:18.125Z,96.20
2023-03-10T01:22:20.914Z,96.26
2023-03-10T01:27:23.487Z,96.54
2023-03-10T01:32:26.256Z,96.08
2023-03-10T01:37:28.955Z,96.02
2023-03-10T01:42:32.402Z,96.02
2023-03-10T01:47:35.154Z,95.87
2023-03-10T01:52:42.977Z,95.69
2023-03-10T01:57:54.398Z,95.73
2023-03-10T02:03:12.975Z,93.99
2023-03-10T02:08:17.084Z,93.36
2023-03-10T02:13:20.396Z,92.49
2023-03-10T02:18:24.200Z,93.29
2023-03-10T02:23:51.316Z,93.84
2023-03-10T02:29:00.769Z,92.86
2023-03-10T02:34:06.904Z,92.93
2023-03-10T02:39:09.973Z,92.89
2023-03-10T02:44:16.903Z,93.36
2023-03-10T02:49:23.448Z,93.81
2023-03-10T02:54:27.676Z,93.34
2023-03-10T02:59:30.237Z,93.54
2023-03-10T03:04:33.100Z,94.18
2023-03-10T03:09:35.854Z,93.81
2023-03-10T03:14:38.772Z,94.10
2023-03-10T03:19:43.025Z,92.12
2023-03-10T03:24:45.738Z,92.44
2023-03-10T03:29:48.508Z,92.85
2023-03-10T03:34:51.234Z,92.25
2023-03-10T03:39:53.858Z,91.74
2023-03-10T03:44:57.487Z,90.20
2023-03-10T03:50:00.592Z,89.98
2023-03-10T03:55:04.273Z,89.04
2023-03-10T04:00:09.390Z,90.11
2023-03-10T04:05:15.610Z,90.16
2023-03-10T04:10:21.234Z,88.79
2023-03-10T04:15:24.335Z,89.04
2023-03-10T04:20:27.374Z,89.68
2023-03-10T04:25:30.498Z,89.79
2023-03-10T04:30:33.218Z,90.56
2023-03-10T04:35:44.935Z,88.93
2023-03-10T04:40:58.758Z,89.35
2023-03-10T04:46:07.280Z,88.89
2023-03-10T04:51:12.534Z,88.11
2023-03-10T04:56:21.749Z,87.39
2023-03-10T05:01:24.651Z,88.49
2023-03-10T05:06:33.963Z,87.40
2023-03-10T05:11:47.320Z,85.54
2023-03-10T05:16:50.825Z,86.56
2023-03-10T05:21:53.776Z,86.29
2023-03-10T05:26:57.001Z,86.65
2023-03-10T05:32:00.849Z,86.70
2023-03-10T05:37:09.482Z,83.93
2023-03-10T05:42:12.806Z,84.27
2023-03-10T05:47:19.273Z,84.97
2023-03-10T05:52:23.136Z,82.66
2023-03-10T05:57:26.380Z,82.44
2023-03-10T06:02:29.170Z,80.86
2023-03-10T06:07:32.141Z,81.67
2023-03-10T06:12:34.714Z,79.33
2023-03-10T06:17:37.365Z,79.29
2023-03-10T06:22:40.039Z,80.34
2023-03-10T06:27:42.544Z,78.06
2023-03-10T06:32:45.056Z,80.04
2023-03-10T06:37:47.675Z,78.40
2023-03-10T06:42:50.292Z,77.71
2023-03-10T06:47:52.957Z,76.37
2023-03-10T06:52:58.275Z,76.21
2023-03-10T06:58:01.040Z,75.70
2023-03-10T07:03:04.275Z,74.61
2023-03-10T07:08:06.843Z,74.25
2023-03-10T07:13:10.888Z,74.52
2023-03-10T07:18:13.792Z,73.11
2023-03-10T07:23:16.445Z,74.11
2023-03-10T07:28:19.196Z,72.45
2023-03-10T07:33:21.928Z,73.63
2023-03-10T07:38:25.242Z,72.71
2023-03-10T07:43:27.929Z,70.68
2023-03-10T07:48:30.609Z,70.84
2023-03-10T07:53:33.564Z,70.34
2023-03-10T07:58:36.164Z,68.26
2023-03-10T08:03:38.708Z,68.35
2023-03-10T08:08:41.354Z,69.07
2023-03-10T08:13:46.177Z,68.77
2023-03-10T08:18:51.525Z,70.60
2023-03-10T08:23:54.177Z,66.89
2023-03-10T08:28:56.731Z,67.42
2023-03-10T08:33:59.410Z,68.09
2023-03-10T08:39:02.466Z,67.25
2023-03-10T08:44:06.186Z,67.23
2023-03-10T08:49:09.600Z,65.90
2023-03-10T08:54:14.778Z,67.15
2023-03-10T08:59:18.322Z,65.64
2023-03-10T09:04:20.859Z,69.34
2023-03-10T09:09:23.737Z,68.48
2023-03-10T09:14:26.668Z,68.56
2023-03-10T09:19:29.421Z,67.71
2023-03-10T09:24:32.104Z,68.09
2023-03-10T09:29:43.172Z,67.15
2023-03-10T09:34:46.063Z,67.58
2023-03-10T09:39:48.759Z,68.81
2023-03-10T09:44:57.042Z,66.51
2023-03-10T09:50:29.808Z,61.73
2023-03-10T09:55:47.366Z,66.96
2023-03-10T10:00:50.905Z,68.41
2023-03-10T10:05:56.769Z,68.18
2023-03-10T10:11:01.047Z,67.80
2023-03-10T10:16:33.605Z,66.93
2023-03-10T10:21:49.859Z,68.59
2023-03-10T10:26:52.690Z,67.43
2023-03-10T10:32:12.488Z,67.97
2023-03-10T10:37:29.913Z,66.20
2023-03-10T10:42:34.836Z,67.06
2023-03-10T10:47:47.957Z,67.27
2023-03-10T10:53:19.695Z,66.21
2023-03-10T10:58:37.385Z,67.05
2023-03-10T11:03:45.575Z,67.48
2023-03-10T11:08:51.439Z,67.56
2023-03-10T11:14:31.692Z,66.39
2023-03-10T11:20:13.393Z,66.38
2023-03-10T11:25:21.156Z,68.29
2023-03-10T11:30:32.588Z,65.98
2023-03-10T11:35:43.916Z,67.42
2023-03-10T11:40:56.394Z,65.91
2023-03-10T11:46:05.574Z,66.76
2023-03-10T11:51:27.320Z,67.07
2023-03-10T11:56:30.218Z,66.11
2023-03-10T12:01:42.609Z,67.03
2023-03-10T12:06:55.781Z,67.46
2023-03-10T12:11:59.790Z,68.65
2023-03-10T12:17:04.294Z,66.43
2023-03-10T12:22:24.936Z,63.93
2023-03-10T12:27:27.572Z,65.04
2023-03-10T12:32:44.444Z,63.62
2023-03-10T12:37:47.147Z,66.84
2023-03-10T12:42:49.769Z,63.99
2023-03-10T12:48:12.392Z,60.92
2023-03-10T12:53:27.277Z,59.88
2023-03-10T12:58:30.797Z,61.18
2023-03-10T13:03:46.244Z,62.19
2023-03-10T13:09:14.620Z,59.84
2023-03-10T13:14:22.752Z,62.13
2023-03-10T13:19:31.335Z,61.60
2023-03-10T13:24:39.162Z,61.34
2023-03-10T13:29:59.782Z,59.83
2023-03-10T13:35:36.402Z,56.93
2023-03-10T13:40:43.066Z,62.41
2023-03-10T13:45:46.344Z,62.39
2023-03-10T13:51:03.198Z,63.21
2023-03-10T13:56:36.780Z,62.12
2023-03-10T14:01:50.266Z,63.67
2023-03-10T14:07:13.985Z,62.16
2023-03-10T14:12:38.452Z,61.69
2023-03-10T14:17:43.597Z,64.00
2023-03-10T14:22:46.179Z,63.10
2023-03-10T14:33:16.923Z,64.78
2023-03-10T14:38:19.624Z,64.89
2023-03-10T14:43:27.599Z,65.45
2023-03-10T14:48:35.720Z,65.79
2023-03-10T14:53:38.673Z,66.61
2023-03-10T14:58:54.269Z,67.34
2023-03-10T15:03:56.858Z,67.07
2023-03-10T15:09:01.235Z,68.00
2023-03-10T15:14:18.752Z,68.27
2023-03-10T15:19:23.695Z,68.87
2023-03-10T15:24:26.334Z,69.22
2023-03-10T15:29:29.009Z,70.59
2023-03-10T15:34:31.987Z,70.54
2023-03-10T15:39:37.098Z,70.30
2023-03-10T15:44:40.232Z,71.12
2023-03-10T15:49:42.905Z,71.81
2023-03-10T15:54:45.950Z,72.34
2023-03-10T15:59:48.671Z,72.66
2023-03-10T16:04:51.510Z,73.00
2023-03-10T16:09:54.343Z,73.28
2023-03-10T16:14:57.440Z,73.24
2023-03-10T16:20:02.304Z,73.50
2023-03-10T16:25:09.507Z,73.83
2023-03-10T16:30:14.250Z,73.89
2023-03-10T16:35:19.076Z,74.46
2023-03-10T16:40:22.368Z,74.35
2023-03-10T16:45:25.069Z,74.42
2023-03-10T16:50:27.683Z,75.29
2023-03-10T16:55:30.406Z,75.44
2023-03-10T17:00:33.084Z,75.46
2023-03-10T17:05:35.992Z,75.73
2023-03-10T17:10:38.728Z,75.68
2023-03-10T17:15:41.449Z,75.91
2023-03-10T17:20:44.252Z,76.41
2023-03-10T17:25:47.184Z,75.50
2023-03-10T17:30:50.108Z,75.88
2023-03-10T17:35:53.397Z,76.73
2023-03-10T17:40:56.203Z,76.24
2023-03-10T17:46:00.674Z,77.05
2023-03-10T17:51:04.055Z,77.58
2023-03-10T17:56:07.997Z,77.05
2023-03-10T18:01:23.396Z,77.50
2023-03-10T18:06:29.717Z,77.30
2023-03-10T18:11:33.330Z,78.17
2023-03-10T18:16:39.509Z,77.77
2023-03-10T18:21:42.414Z,77.99
2023-03-10T18:26:45.811Z,77.65
2023-03-10T18:31:48.715Z,77.55
2023-03-10T18:36:52.062Z,77.94
2023-03-10T18:41:55.396Z,78.52
2023-03-10T18:46:57.981Z,78.20
2023-03-10T18:52:00.867Z,78.15
2023-03-10T18:57:04.891Z,78.32
2023-03-10T19:02:12.626Z,78.87
2023-03-10T19:07:17.603Z,78.79
2023-03-10T19:12:20.758Z,78.85
2023-03-10T19:17:26.501Z,79.14
2023-03-10T19:22:30.459Z,78.40
2023-03-10T19:27:33.896Z,78.27
2023-03-10T19:32:37.122Z,77.64
2023-03-10T19:37:43.495Z,77.30
2023-03-10T19:42:46.555Z,77.56
2023-03-10T19:47:49.283Z,77.46
2023-03-10T19:52:51.988Z,78.00
2023-03-10T19:57:58.526Z,78.71
2023-03-10T20:03:01.124Z,79.03
2023-03-10T20:08:03.988Z,78.88
2023-03-10T20:13:06.707Z,78.48
2023-03-10T20:18:09.409Z,78.75
2023-03-10T20:23:11.981Z,78.56
2023-03-10T20:28:15.255Z,78.81
2023-03-10T20:33:20.473Z,78.63
2023-03-10T20:38:23.484Z,78.96
2023-03-10T20:43:27.020Z,78.66
2023-03-10T20:48:29.606Z,78.86
2023-03-10T20:53:33.508Z,78.54
2023-03-10T20:58:36.779Z,78.64
2023-03-10T21:03:39.422Z,78.09
2023-03-10T21:08:42.026Z,78.12
2023-03-10T21:13:44.959Z,78.26
2023-03-10T21:18:47.511Z,77.29
2023-03-10T21:23:50.571Z,77.39
2023-03-10T21:28:53.221Z,77.29
2023-03-10T21:33:55.840Z,77.12
2023-03-10T21:38:58.578Z,77.00
2023-03-10T21:44:01.621Z,76.99
2023-03-10T21:49:04.229Z,77.16
2023-03-10T21:54:07.466Z,77.37
2023-03-10T21:59:10.695Z,77.53
2023-03-10T22:04:13.587Z,77.12
2023-03-10T22:09:16.140Z,77.72
2023-03-10T22:14:18.698Z,77.52
2023-03-10T22:19:21.208Z,77.28
2023-03-10T22:24:23.787Z,77.60
2023-03-10T22:29:26.454Z,77.50
2023-03-10T22:34:29.065Z,77.32
2023-03-10T22:39:31.679Z,76.86
2023-03-10T22:44:36.377Z,77.00
2023-03-10T22:49:41.765Z,76.99
2023-03-10T22:54:47.021Z,77.04
2023-03-10T22:59:49.533Z,76.09
2023-03-10T23:04:52.205Z,76.63
2023-03-10T23:09:54.694Z,76.45
2023-03-10T23:14:57.500Z,76.42
2023-03-10T23:20:00.143Z,76.53
2023-03-10T23:25:02.676Z,76.72
2023-03-10T23:30:06.499Z,76.45
2023-03-10T23:35:12.109Z,76.47
2023-03-10T23:40:17.251Z,76.39
2023-03-10T23:45:23.078Z,75.98
2023-03-10T23:50:31.096Z,76.31
2023-03-10T23:55:37.427Z,75.83
